createdAt,value
2022-11-04T00:03:08.714Z,11.91
2022-11-04T00:08:25.266Z,11.93
2022-11-04T00:13:30.051Z,11.91
2022-11-04T00:18:31.422Z,11.91
2022-11-04T00:23:51.173Z,11.91
2022-11-04T00:28:54.138Z,11.89
2022-11-04T00:33:57.624Z,11.94
2022-11-04T00:38:58.948Z,12.01
2022-11-04T00:44:04.883Z,12.07
2022-11-04T00:49:06.390Z,12.07
2022-11-04T00:54:07.733Z,12.02
2022-11-04T00:59:13.441Z,12.05
2022-11-04T01:04:16.115Z,12.00
2022-11-04T01:09:17.780Z,12.05
2022-11-04T01:14:19.496Z,12.10
2022-11-04T01:19:20.863Z,12.12
2022-11-04T01:24:22.250Z,12.14
2022-11-04T01:29:23.631Z,12.08
2022-11-04T01:34:24.963Z,11.99
2022-11-04T01:39:26.350Z,11.94
2022-11-04T01:44:42.740Z,11.92
2022-11-04T01:49:48.971Z,11.89
2022-11-04T01:54:55.263Z,11.82
2022-11-04T02:00:01.232Z,11.78
2022-11-04T02:05:02.602Z,11.81
2022-11-04T02:10:04.237Z,11.81
2022-11-04T02:15:05.952Z,11.71
2022-11-04T02:20:25.303Z,11.64
2022-11-04T02:25:57.734Z,11.62
2022-11-04T02:31:13.760Z,11.60
2022-11-04T02:36:46.254Z,11.66
2022-11-04T02:42:01.120Z,11.60
2022-11-04T02:47:07.641Z,11.54
2022-11-04T02:52:12.350Z,11.55
2022-11-04T02:57:18.173Z,11.54
2022-11-04T03:02:26.223Z,11.41
2022-11-04T03:07:31.957Z,11.39
2022-11-04T03:12:39.965Z,11.34
2022-11-04T03:18:10.502Z,11.34
2022-11-04T03:23:13.122Z,11.27
2022-11-04T03:28:43.502Z,11.17
2022-11-04T03:33:49.265Z,11.16
2022-11-04T03:38:52.510Z,11.09
2022-11-04T03:43:53.794Z,11.05
2022-11-04T03:48:55.856Z,10.98
2022-11-04T03:53:58.276Z,10.94
2022-11-04T03:58:59.554Z,10.95
2022-11-04T04:04:19.630Z,10.95
2022-11-04T04:09:32.308Z,10.94
2022-11-04T04:14:40.912Z,10.96
2022-11-04T04:19:48.157Z,10.92
2022-11-04T04:25:13.970Z,10.89
2022-11-04T04:30:17.204Z,10.83
2022-11-04T04:35:40.858Z,10.81
2022-11-04T04:41:02.240Z,10.77
2022-11-04T04:46:03.637Z,10.69
2022-11-04T04:51:05.149Z,10.64
2022-11-04T04:56:06.553Z,10.68
2022-11-04T05:01:09.035Z,10.63
2022-11-04T05:06:10.428Z,10.65
2022-11-04T05:11:12.231Z,10.57
2022-11-04T05:16:13.610Z,10.55
2022-11-04T05:21:16.033Z,10.64
2022-11-04T05:26:17.584Z,10.61
2022-11-04T05:31:18.936Z,10.60
2022-11-04T05:36:20.268Z,10.63
2022-11-04T05:41:28.445Z,10.66
2022-11-04T05:46:30.705Z,10.68
2022-11-04T05:51:33.384Z,10.60
2022-11-04T05:56:34.829Z,10.57
2022-11-04T06:01:40.742Z,10.55
2022-11-04T06:06:42.311Z,10.60
2022-11-04T06:11:43.854Z,10.64
2022-11-04T06:16:45.171Z,10.74
2022-11-04T06:21:46.638Z,10.71
2022-11-04T06:26:48.038Z,10.83
2022-11-04T06:31:49.446Z,10.88
2022-11-04T06:36:50.959Z,10.91
2022-11-04T06:41:53.046Z,10.98
2022-11-04T06:46:57.097Z,10.87
2022-11-04T06:52:00.987Z,10.88
2022-11-04T06:57:02.934Z,11.01
2022-11-04T07:02:04.908Z,11.11
2022-11-04T07:07:06.284Z,11.17
2022-11-04T07:12:07.654Z,11.27
2022-11-04T07:17:09.151Z,11.19
2022-11-04T07:22:10.656Z,11.25
2022-11-04T07:27:12.013Z,11.14
2022-11-04T07:32:13.322Z,11.30
2022-11-04T07:37:14.641Z,11.30
2022-11-04T07:42:15.986Z,11.34
2022-11-04T07:47:17.369Z,11.29
2022-11-04T07:52:18.654Z,11.21
2022-11-04T07:57:20.013Z,11.16
2022-11-04T08:02:26.559Z,11.33
2022-11-04T08:07:30.627Z,11.44
2022-11-04T08:12:32.375Z,11.47
2022-11-04T08:17:33.846Z,11.46
2022-11-04T08:22:35.594Z,11.41
2022-11-04T08:27:36.910Z,11.42
2022-11-04T08:32:38.249Z,11.35
2022-11-04T08:37:39.576Z,11.52
2022-11-04T08:42:40.934Z,11.45
2022-11-04T08:47:42.266Z,11.46
2022-11-04T08:52:43.572Z,11.56
2022-11-04T08:57:44.971Z,11.55
2022-11-04T09:02:46.684Z,11.57
2022-11-04T09:07:47.995Z,11.48
2022-11-04T09:12:49.387Z,11.40
2022-11-04T09:17:50.671Z,11.44
2022-11-04T09:22:53.086Z,11.55
2022-11-04T09:27:56.338Z,11.73
2022-11-04T09:32:58.327Z,11.96
2022-11-04T09:38:01.277Z,12.08
2022-11-04T09:43:28.699Z,12.31
2022-11-04T09:48:45.410Z,12.96
2022-11-04T09:53:49.117Z,13.48
2022-11-04T09:58:51.270Z,13.36
2022-11-04T10:04:01.653Z,13.18
2022-11-04T10:09:18.094Z,13.05
2022-11-04T10:14:55.275Z,12.97
2022-11-04T10:20:12.243Z,13.08
2022-11-04T10:25:16.902Z,13.29
2022-11-04T10:30:23.997Z,14.00
2022-11-04T10:35:31.555Z,14.66
2022-11-04T10:40:38.692Z,16.50
2022-11-04T10:46:08.186Z,17.43
2022-11-04T10:51:09.518Z,20.71
2022-11-04T10:56:20.277Z,21.72
2022-11-04T11:01:31.303Z,20.27
2022-11-04T11:06:35.614Z,21.08
2022-11-04T11:11:51.823Z,20.08
2022-11-04T11:16:53.570Z,18.24
2022-11-04T11:21:56.849Z,18.82
2022-11-04T11:27:01.280Z,19.96
2022-11-04T11:32:03.561Z,17.26
2022-11-04T11:37:19.075Z,16.75
2022-11-04T11:42:21.029Z,16.07
2022-11-04T11:47:25.117Z,16.17
2022-11-04T11:52:35.161Z,18.07
2022-11-04T12:03:24.001Z,21.44
2022-11-04T12:14:05.714Z,27.10
2022-11-04T12:19:36.428Z,26.01
2022-11-04T12:25:02.784Z,25.45
2022-11-04T12:30:10.314Z,23.83
2022-11-04T12:35:26.012Z,20.97
2022-11-04T12:46:37.303Z,16.82
2022-11-04T12:52:00.397Z,16.32
2022-11-04T12:57:13.145Z,16.01
2022-11-04T13:02:23.921Z,15.85
2022-11-04T13:07:33.520Z,17.79
2022-11-04T13:12:43.541Z,17.59
2022-11-04T13:17:47.418Z,16.76
2022-11-04T13:22:50.137Z,16.28
2022-11-04T13:27:51.679Z,15.86
2022-11-04T13:33:19.232Z,15.49
2022-11-04T13:38:27.302Z,15.25
2022-11-04T13:43:38.449Z,15.02
2022-11-04T13:48:50.642Z,15.05
2022-11-04T13:53:55.656Z,14.98
2022-11-04T13:59:02.361Z,15.03
2022-11-04T14:04:12.648Z,14.90
2022-11-04T14:09:42.983Z,14.88
2022-11-04T14:14:51.148Z,14.79
2022-11-04T14:19:57.850Z,14.53
2022-11-04T14:25:02.379Z,14.47
2022-11-04T14:30:04.238Z,14.28
2022-11-04T14:35:08.724Z,14.23
2022-11-04T14:40:25.411Z,14.08
2022-11-04T14:45:38.542Z,14.14
2022-11-04T14:50:45.054Z,14.00
2022-11-04T14:55:46.366Z,13.97
2022-11-04T15:00:50.771Z,13.93
2022-11-04T15:06:00.595Z,13.78
2022-11-04T15:11:15.579Z,13.78
2022-11-04T15:16:28.532Z,13.85
2022-11-04T15:21:29.932Z,13.54
2022-11-04T15:26:33.935Z,13.57
2022-11-04T15:31:36.602Z,13.53
2022-11-04T15:36:42.563Z,13.58
2022-11-04T15:42:03.959Z,13.58
2022-11-04T15:47:17.223Z,13.56
2022-11-04T15:52:23.349Z,13.65
2022-11-04T15:57:28.926Z,13.63
2022-11-04T16:02:33.726Z,13.60
2022-11-04T16:07:38.364Z,13.64
2022-11-04T16:12:43.812Z,13.54
2022-11-04T16:17:45.304Z,13.56
2022-11-04T16:22:46.956Z,13.60
2022-11-04T16:27:49.259Z,13.68
2022-11-04T16:32:54.195Z,13.66
2022-11-04T16:37:56.549Z,13.62
2022-11-04T16:42:57.965Z,13.55
2022-11-04T16:47:59.326Z,13.60
2022-11-04T16:53:02.336Z,13.56
2022-11-04T16:58:07.261Z,13.46
2022-11-04T17:03:22.811Z,13.36
2022-11-04T17:08:25.440Z,13.39
2022-11-04T17:13:29.836Z,13.36
2022-11-04T17:18:35.231Z,13.36
2022-11-04T17:23:36.872Z,13.37
2022-11-04T17:28:38.338Z,13.34
2022-11-04T17:33:39.774Z,13.24
2022-11-04T17:38:41.098Z,13.25
2022-11-04T17:44:00.521Z,13.27
2022-11-04T17:49:07.851Z,13.25
2022-11-04T17:54:10.029Z,13.14
2022-11-04T17:59:13.331Z,13.12
2022-11-04T18:04:20.787Z,13.09
2022-11-04T18:09:22.130Z,13.00
2022-11-04T18:14:23.712Z,12.92
2022-11-04T18:19:26.487Z,12.88
2022-11-04T18:24:28.115Z,12.91
2022-11-04T18:29:29.505Z,12.96
2022-11-04T18:34:30.845Z,12.98
2022-11-04T18:39:32.191Z,12.92
2022-11-04T18:44:33.673Z,13.00
2022-11-04T18:49:35.240Z,12.98
2022-11-04T18:54:36.538Z,12.93
2022-11-04T18:59:38.347Z,12.86
2022-11-04T19:04:39.648Z,12.83
2022-11-04T19:09:46.702Z,12.83
2022-11-04T19:14:49.097Z,12.82
2022-11-04T19:19:51.304Z,12.77
2022-11-04T19:24:53.038Z,12.69
2022-11-04T19:29:54.427Z,12.62
2022-11-04T19:34:55.736Z,12.55
2022-11-04T19:39:57.040Z,12.68
2022-11-04T19:44:58.399Z,12.76
2022-11-04T19:49:59.686Z,12.60
2022-11-04T19:55:00.974Z,12.55
2022-11-04T20:00:03.501Z,12.63
2022-11-04T20:05:05.588Z,12.58
2022-11-04T20:10:07.787Z,12.59
2022-11-04T20:15:09.726Z,12.43
2022-11-04T20:20:11.142Z,12.44
2022-11-04T20:25:12.576Z,12.46
2022-11-04T20:30:13.968Z,12.47
2022-11-04T20:35:15.299Z,12.45
2022-11-04T20:40:16.824Z,12.53
2022-11-04T20:45:19.287Z,12.55
2022-11-04T20:50:20.654Z,12.41
2022-11-04T20:55:22.906Z,12.41
2022-11-04T21:00:24.211Z,12.42
2022-11-04T21:05:25.481Z,12.37
2022-11-04T21:10:26.847Z,12.34
2022-11-04T21:15:40.649Z,12.38
2022-11-04T21:20:42.990Z,12.50
2022-11-04T21:25:47.255Z,12.38
2022-11-04T21:30:51.132Z,12.45
2022-11-04T21:35:52.476Z,12.46
2022-11-04T21:41:03.406Z,12.44
2022-11-04T21:46:10.343Z,12.35
2022-11-04T21:51:14.777Z,12.36
2022-11-04T21:56:17.671Z,12.33
2022-11-04T22:01:22.134Z,12.28
2022-11-04T22:06:24.973Z,12.30
2022-11-04T22:11:31.148Z,12.32
2022-11-04T22:16:34.757Z,12.36
2022-11-04T22:21:38.706Z,12.45
2022-11-04T22:26:40.383Z,12.41
2022-11-04T22:31:42.985Z,12.39
2022-11-04T22:36:44.412Z,12.40
2022-11-04T22:41:46.564Z,12.39
2022-11-04T22:47:02.289Z,12.30
2022-11-04T22:52:05.314Z,12.30
2022-11-04T22:57:06.619Z,12.14
2022-11-04T23:02:08.095Z,12.12
2022-11-04T23:07:09.500Z,12.09
2022-11-04T23:12:29.547Z,12.06
2022-11-04T23:17:49.516Z,12.07
2022-11-04T23:23:09.396Z,12.05
2022-11-04T23:28:29.438Z,12.11
2022-11-04T23:33:49.402Z,12.01
2022-11-04T23:38:50.785Z,11.99
2022-11-04T23:43:53.008Z,11.83
2022-11-04T23:49:12.906Z,11.87
2022-11-04T23:54:32.735Z,11.86
2022-11-04T23:59:52.481Z,11.74
